Time;durP1;ratioP1;P1;durP2;ratioP2;P2;SDS_P1;SDS_P2;PMS_P1;PMS_P2;Temp;Humidity;BMP_temperature;BMP_pressure;BME280_temperature;BME280_humidity;BME280_pressure;Samples;Min_cycle;Max_cycle;Signal;HPM_P1;HPM_P2
2022/10/22 00:02:06;;;;;;;27.50;12.68;;;;;;;13.46;100.00;100627.34;5071029;28;20055;-74
2022/10/22 00:04:34;;;;;;;25.52;12.05;;;;;;;13.45;100.00;100625.78;5067950;28;20117;-71
2022/10/22 00:07:01;;;;;;;27.30;13.20;;;;;;;13.47;100.00;100630.91;5064733;28;20052;-72
2022/10/22 00:09:28;;;;;;;20.10;10.80;;;;;;;13.49;100.00;100632.06;5067262;28;20062;-71
2022/10/22 00:11:54;;;;;;;24.88;11.60;;;;;;;13.53;100.00;100632.03;5068448;28;20043;-71
2022/10/22 00:14:20;;;;;;;28.02;12.32;;;;;;;13.53;100.00;100632.03;5069122;28;20047;-71
2022/10/22 00:16:47;;;;;;;25.67;12.10;;;;;;;13.55;100.00;100629.59;5069886;28;20082;-71
2022/10/22 00:19:14;;;;;;;32.60;12.48;;;;;;;13.56;100.00;100633.97;5066281;28;20043;-73
2022/10/22 00:21:40;;;;;;;27.98;13.55;;;;;;;13.52;100.00;100633.22;5067290;28;20051;-70
2022/10/22 00:24:07;;;;;;;26.65;11.13;;;;;;;13.54;100.00;100639.16;5088200;28;20044;-71
2022/10/22 00:26:33;;;;;;;26.58;11.18;;;;;;;13.49;100.00;100642.38;5081574;28;20052;-72
2022/10/22 00:29:00;;;;;;;25.08;12.75;;;;;;;13.48;100.00;100644.41;5088054;28;20044;-72
2022/10/22 00:31:26;;;;;;;27.15;12.15;;;;;;;13.42;100.00;100656.38;5079112;28;20098;-71
2022/10/22 00:34:00;;;;;;;29.95;11.43;;;;;;;13.38;100.00;100655.66;5077100;28;20182;-71
2022/10/22 00:36:26;;;;;;;25.40;11.75;;;;;;;13.37;100.00;100656.88;5073260;28;20048;-72
2022/10/22 00:38:53;;;;;;;20.83;10.18;;;;;;;13.36;100.00;100650.50;5085596;28;20052;-71
2022/10/22 00:41:19;;;;;;;25.42;10.85;;;;;;;13.36;100.00;100652.53;5073743;28;20554;-70
2022/10/22 00:43:54;;;;;;;28.88;10.85;;;;;;;13.35;100.00;100650.94;5083146;28;20052;-71
2022/10/22 00:46:22;;;;;;;23.52;10.48;;;;;;;13.35;100.00;100648.16;5074287;28;20139;-71
2022/10/22 00:48:49;;;;;;;24.13;11.15;;;;;;;13.33;100.00;100648.56;5084461;28;20054;-71
2022/10/22 00:51:16;;;;;;;27.25;12.27;;;;;;;13.27;100.00;100649.44;5082569;28;20092;-73
2022/10/22 00:53:48;;;;;;;23.20;11.02;;;;;;;13.29;100.00;100642.28;5085363;28;20415;-71
2022/10/22 00:56:16;;;;;;;24.25;10.77;;;;;;;13.27;100.00;100625.25;5084149;28;20106;-71
2022/10/22 00:58:46;;;;;;;27.08;11.35;;;;;;;13.28;100.00;100628.78;5073250;28;20113;-71
2022/10/22 01:01:20;;;;;;;22.73;10.57;;;;;;;13.32;100.00;100638.66;5081355;28;20507;-72
2022/10/22 01:03:47;;;;;;;23.70;9.70;;;;;;;13.34;100.00;100635.47;5085747;28;20566;-71
2022/10/22 01:06:23;;;;;;;24.85;9.95;;;;;;;13.29;100.00;100635.94;5086939;28;20416;-71
2022/10/22 01:09:05;;;;;;;20.95;9.38;;;;;;;13.32;100.00;100643.41;5082495;28;20063;-71
2022/10/22 01:11:50;;;;;;;22.92;9.75;;;;;;;13.31;100.00;100633.53;5076547;28;20137;-71
2022/10/22 01:14:46;;;;;;;20.58;9.50;;;;;;;13.31;100.00;100634.31;5069671;28;20040;-71
2022/10/22 01:17:36;;;;;;;27.52;10.63;;;;;;;13.28;100.00;100639.91;5086463;28;20131;-71
2022/10/22 01:20:16;;;;;;;27.50;10.57;;;;;;;13.22;100.00;100638.81;5068158;28;20072;-73
2022/10/22 01:23:12;;;;;;;20.65;9.85;;;;;;;13.07;100.00;100618.75;5073132;28;20048;-70
2022/10/22 01:26:02;;;;;;;23.17;9.53;;;;;;;13.18;100.00;100636.06;5077963;28;20106;-73
2022/10/22 01:28:52;;;;;;;17.58;8.70;;;;;;;13.18;100.00;100624.97;5085463;28;20322;-70
2022/10/22 01:31:22;;;;;;;23.10;9.15;;;;;;;13.19;100.00;100623.75;5083893;28;20054;-73
2022/10/22 01:33:52;;;;;;;22.50;8.80;;;;;;;13.19;100.00;100604.28;5073471;28;20050;-73
2022/10/22 01:36:19;;;;;;;19.23;8.75;;;;;;;13.18;100.00;100622.19;5090640;28;20074;-73
2022/10/22 01:38:48;;;;;;;18.35;7.78;;;;;;;13.13;100.00;100614.28;5091021;28;20051;-71
2022/10/22 01:41:15;;;;;;;24.42;7.90;;;;;;;13.11;100.00;100619.50;5081122;28;20767;-73
2022/10/22 01:43:41;;;;;;;17.90;7.90;;;;;;;13.07;100.00;100618.75;5087640;28;20045;-71
2022/10/22 01:46:10;;;;;;;23.38;9.75;;;;;;;13.06;100.00;100619.19;5093424;27;20052;-71
2022/10/22 01:48:54;;;;;;;19.88;8.60;;;;;;;13.05;100.00;100615.59;5091329;28;20779;-73
2022/10/22 01:51:29;;;;;;;26.00;8.38;;;;;;;13.09;100.00;100618.34;5082898;28;20075;-73
2022/10/22 01:54:13;;;;;;;19.38;7.53;;;;;;;13.10;100.00;100615.16;5078324;28;20045;-73
2022/10/22 01:56:53;;;;;;;22.05;8.10;;;;;;;13.04;100.00;100623.13;5083479;28;20047;-71
2022/10/22 01:59:34;;;;;;;19.55;7.30;;;;;;;13.01;100.00;100617.66;5091667;28;20044;-73
2022/10/22 02:02:13;;;;;;;19.42;7.80;;;;;;;13.01;100.00;100620.41;5091802;28;20074;-73
2022/10/22 02:04:47;;;;;;;24.67;8.30;;;;;;;13.02;100.00;100610.88;5080037;28;20048;-71
2022/10/22 02:07:22;;;;;;;18.05;8.13;;;;;;;13.01;100.00;100617.66;5081404;28;20044;-72
2022/10/22 02:09:51;;;;;;;21.20;7.90;;;;;;;12.96;100.00;100615.28;5083433;28;20049;-71
2022/10/22 02:12:20;;;;;;;16.02;7.25;;;;;;;12.94;100.00;100614.94;5087429;28;20055;-73
2022/10/22 02:14:50;;;;;;;16.45;8.63;;;;;;;12.95;100.00;100617.28;5089333;28;20049;-71
2022/10/22 02:17:20;;;;;;;20.25;7.90;;;;;;;12.98;100.00;100610.09;5082585;28;20068;-71
2022/10/22 02:19:55;;;;;;;20.33;8.00;;;;;;;12.98;100.00;100604.56;5082343;28;20049;-71
2022/10/22 02:22:22;;;;;;;18.50;8.07;;;;;;;12.97;100.00;100612.09;5076771;28;20054;-71
2022/10/22 02:24:55;;;;;;;20.05;8.55;;;;;;;12.94;100.00;100606.59;5082880;28;20044;-73
2022/10/22 02:27:42;;;;;;;19.58;7.70;;;;;;;12.89;100.00;100615.38;5089511;28;20121;-73
2022/10/22 02:30:13;;;;;;;19.30;7.68;;;;;;;12.85;100.00;100609.88;5080909;28;20045;-73
2022/10/22 02:33:07;;;;;;;15.55;7.35;;;;;;;12.83;100.00;100605.94;5120438;27;20455;-72
2022/10/22 02:35:39;;;;;;;22.27;7.85;;;;;;;12.85;100.00;100609.06;5078989;28;20519;-72
2022/10/22 02:38:07;;;;;;;19.45;7.72;;;;;;;12.79;100.00;100616.28;5085869;28;20056;-72
2022/10/22 02:40:34;;;;;;;18.13;8.65;;;;;;;12.73;100.00;100618.72;5073090;28;20056;-73
2022/10/22 02:43:09;;;;;;;17.55;7.18;;;;;;;12.74;100.00;100613.97;5088885;28;20056;-71
2022/10/22 02:45:36;;;;;;;22.38;7.95;;;;;;;12.72;100.00;100613.59;5085001;28;20553;-70
2022/10/22 02:48:03;;;;;;;19.77;7.22;;;;;;;12.71;100.00;100623.91;5080783;28;20068;-71
2022/10/22 02:50:34;;;;;;;19.23;7.85;;;;;;;12.69;100.00;100623.53;5081027;28;20191;-73
2022/10/22 02:53:00;;;;;;;20.73;7.70;;;;;;;12.68;100.00;100621.97;5083265;28;20093;-73
2022/10/22 02:55:27;;;;;;;18.55;6.90;;;;;;;12.66;100.00;100629.91;5073632;28;20048;-74
2022/10/22 02:57:53;;;;;;;16.55;6.45;;;;;;;12.68;100.00;100627.53;5090294;28;20052;-71
2022/10/22 03:00:20;;;;;;;15.88;7.15;;;;;;;12.65;100.00;100628.34;5085076;28;20500;-71
2022/10/22 03:02:46;;;;;;;19.30;6.90;;;;;;;12.65;100.00;100633.09;5085230;28;20056;-71
2022/10/22 03:05:13;;;;;;;17.98;7.38;;;;;;;12.68;100.00;100638.63;5088481;28;20050;-71
2022/10/22 03:07:39;;;;;;;18.35;7.07;;;;;;;12.68;100.00;100626.72;5079905;28;20052;-71
2022/10/22 03:10:10;;;;;;;19.75;6.93;;;;;;;12.67;100.00;100628.72;5078060;28;20085;-71
2022/10/22 03:12:36;;;;;;;22.88;7.93;;;;;;;12.65;100.00;100628.34;5077533;28;20056;-73
2022/10/22 03:15:03;;;;;;;18.33;6.90;;;;;;;12.65;100.00;100631.13;5076783;28;20040;-71
2022/10/22 03:17:29;;;;;;;16.90;7.28;;;;;;;12.66;100.00;100629.16;5090473;28;20047;-73
2022/10/22 03:19:56;;;;;;;23.73;8.35;;;;;;;12.65;100.00;100627.53;5081849;28;20049;-73
2022/10/22 03:22:26;;;;;;;16.42;7.70;;;;;;;12.61;100.00;100630.38;5083165;28;20409;-71
2022/10/22 03:24:57;;;;;;;23.42;7.63;;;;;;;12.61;100.00;100624.81;5087071;28;20500;-71
2022/10/22 03:27:27;;;;;;;20.05;7.82;;;;;;;12.55;100.00;100632.03;5077792;28;20064;-70
2022/10/22 03:29:55;;;;;;;16.60;7.18;;;;;;;12.43;100.00;100626.22;5073086;28;20052;-73
2022/10/22 03:32:23;;;;;;;18.52;7.43;;;;;;;12.41;100.00;100626.63;5085236;28;20144;-71
2022/10/22 03:34:49;;;;;;;18.98;7.95;;;;;;;12.41;100.00;100632.16;5083462;28;20048;-70
2022/10/22 03:37:19;;;;;;;20.20;7.60;;;;;;;12.38;100.00;100637.75;5078262;27;20049;-70
2022/10/22 03:39:46;;;;;;;15.73;7.00;;;;;;;12.35;100.00;100635.78;5081222;28;20614;-70
2022/10/22 03:42:13;;;;;;;20.17;7.50;;;;;;;12.33;100.00;100641.78;5078229;28;20113;-73
2022/10/22 03:44:39;;;;;;;26.15;9.88;;;;;;;12.30;100.00;100642.59;5079408;28;20098;-73
2022/10/22 03:47:06;;;;;;;21.33;7.07;;;;;;;12.27;100.00;100639.84;5083048;28;20052;-72
2022/10/22 03:49:33;;;;;;;19.45;7.93;;;;;;;12.26;100.00;100636.25;5085075;28;20048;-71
2022/10/22 03:52:11;;;;;;;21.67;8.20;;;;;;;12.24;100.00;100644.22;5083006;28;20060;-72
2022/10/22 03:54:38;;;;;;;15.68;7.28;;;;;;;12.21;100.00;100647.00;5085164;28;20047;-72
2022/10/22 03:57:15;;;;;;;24.77;6.85;;;;;;;12.10;100.00;100654.66;5086563;28;20048;-72
2022/10/22 03:59:44;;;;;;;20.85;8.32;;;;;;;12.06;100.00;100651.91;5076430;28;20479;-72
2022/10/22 04:02:12;;;;;;;18.63;7.80;;;;;;;12.10;100.00;100663.75;5081172;28;20051;-72
2022/10/22 04:04:38;;;;;;;17.63;7.32;;;;;;;12.09;100.00;100664.16;5071881;28;20048;-72
2022/10/22 04:07:05;;;;;;;22.00;8.15;;;;;;;12.06;100.00;100668.56;5086852;28;20056;-72
2022/10/22 04:09:33;;;;;;;22.50;8.02;;;;;;;12.04;100.00;100668.16;5085863;28;20048;-72
2022/10/22 04:12:04;;;;;;;20.17;8.60;;;;;;;12.04;100.00;100664.59;5090189;28;20055;-70
2022/10/22 04:14:31;;;;;;;18.05;7.65;;;;;;;12.04;100.00;100657.06;5082253;28;20052;-73
2022/10/22 04:16:57;;;;;;;21.90;11.60;;;;;;;12.03;100.00;100658.28;5087159;28;20811;-72
2022/10/22 04:19:23;;;;;;;18.58;7.05;;;;;;;12.03;100.00;100665.78;5075817;28;20060;-71
2022/10/22 04:21:50;;;;;;;19.27;8.15;;;;;;;11.99;100.00;100663.06;5076429;28;20044;-73
2022/10/22 04:24:17;;;;;;;15.60;7.53;;;;;;;11.96;100.00;100663.09;5083204;28;20051;-72
2022/10/22 04:26:43;;;;;;;17.83;7.60;;;;;;;11.93;100.00;100664.69;5089840;28;20047;-71
2022/10/22 04:29:15;;;;;;;19.58;7.40;;;;;;;11.91;100.00;100672.63;5084341;28;20056;-72
2022/10/22 04:31:42;;;;;;;18.88;8.25;;;;;;;11.87;100.00;100668.28;5075277;28;20060;-72
2022/10/22 04:34:08;;;;;;;19.85;7.53;;;;;;;11.91;100.00;100671.84;5084964;28;20047;-73
2022/10/22 04:36:34;;;;;;;16.05;7.53;;;;;;;11.90;100.00;100673.81;5074166;28;20053;-73
2022/10/22 04:39:02;;;;;;;21.40;7.93;;;;;;;11.90;100.00;100670.25;5084105;28;20074;-70
2022/10/22 04:41:31;;;;;;;21.65;7.90;;;;;;;11.93;100.00;100674.97;5086417;28;20498;-73
2022/10/22 04:43:58;;;;;;;18.05;7.65;;;;;;;11.90;100.00;100673.03;5077940;28;20094;-73
2022/10/22 04:46:27;;;;;;;20.35;7.70;;;;;;;11.87;100.00;100668.28;5081301;28;20126;-72
2022/10/22 04:48:54;;;;;;;15.77;7.07;;;;;;;11.88;100.00;100673.44;5087374;28;20102;-73
2022/10/22 04:51:26;;;;;;;16.10;6.93;;;;;;;11.88;100.00;100664.34;5078683;28;20078;-73
2022/10/22 04:53:53;;;;;;;20.38;6.65;;;;;;;11.88;100.00;100667.13;5082502;28;20500;-73
2022/10/22 04:56:25;;;;;;;19.08;6.70;;;;;;;11.77;100.00;100666.38;5089246;28;20048;-73
2022/10/22 04:58:55;;;;;;;17.60;7.32;;;;;;;11.82;100.00;100666.75;5087888;28;20056;-72
2022/10/22 05:01:28;;;;;;;19.58;6.80;;;;;;;11.84;100.00;100678.22;5082674;28;20051;-72
2022/10/22 05:04:00;;;;;;;18.17;7.40;;;;;;;11.84;100.00;100678.22;5076071;28;20093;-73
2022/10/22 05:06:29;;;;;;;16.77;7.35;;;;;;;11.86;100.00;100683.34;5079870;28;20055;-72
2022/10/22 05:09:16;;;;;;;19.58;7.93;;;;;;;11.88;100.00;100690.06;5090567;28;20052;-72
2022/10/22 05:11:47;;;;;;;17.05;7.18;;;;;;;11.90;100.00;100687.69;5085237;28;20078;-72
2022/10/22 05:14:16;;;;;;;17.75;7.32;;;;;;;11.93;100.00;100697.16;5088356;28;20055;-71
2022/10/22 05:16:47;;;;;;;23.10;7.65;;;;;;;11.92;100.00;100693.59;5087741;28;20054;-72
2022/10/22 05:19:19;;;;;;;19.65;7.22;;;;;;;11.88;100.00;100689.28;5084826;28;20147;-71
2022/10/22 05:21:55;;;;;;;17.40;6.63;;;;;;;11.88;100.00;100689.28;5086935;28;20062;-72
2022/10/22 05:24:21;;;;;;;20.25;6.80;;;;;;;11.89;100.00;100699.19;5088294;28;20067;-72
2022/10/22 05:27:06;;;;;;;18.30;7.57;;;;;;;11.86;100.00;100700.78;5081324;28;20063;-72
2022/10/22 05:29:33;;;;;;;21.95;7.45;;;;;;;11.88;100.00;100705.94;5086940;28;20056;-72
2022/10/22 05:31:59;;;;;;;19.73;10.40;;;;;;;11.88;100.00;100706.69;5086636;28;20051;-71
2022/10/22 05:34:26;;;;;;;18.63;7.65;;;;;;;11.83;100.00;100711.88;5086470;28;20055;-73
2022/10/22 05:36:52;;;;;;;23.02;7.60;;;;;;;11.79;100.00;100716.66;5086426;28;20513;-71
2022/10/22 05:39:18;;;;;;;19.35;8.30;;;;;;;11.80;100.00;100709.91;5088335;28;20047;-71
2022/10/22 05:41:45;;;;;;;14.32;6.78;;;;;;;11.77;100.00;100710.72;5086199;28;20055;-72
2022/10/22 05:44:12;;;;;;;17.33;7.50;;;;;;;11.72;100.00;100723.06;5087880;28;20048;-72
2022/10/22 05:46:39;;;;;;;16.92;7.72;;;;;;;11.75;100.00;100715.91;5092814;28;20072;-72
2022/10/22 05:49:06;;;;;;;21.60;7.97;;;;;;;11.74;100.00;100717.09;5078761;28;20420;-72
2022/10/22 05:51:35;;;;;;;22.33;8.05;;;;;;;11.69;100.00;100714.75;5085987;28;20055;-72
2022/10/22 05:54:03;;;;;;;22.35;7.95;;;;;;;11.63;100.00;100717.16;5081836;28;20093;-72
2022/10/22 05:56:33;;;;;;;21.40;8.40;;;;;;;11.66;100.00;100730.22;5086080;28;20105;-72
2022/10/22 05:59:02;;;;;;;16.55;7.85;;;;;;;11.64;100.00;100729.03;5090535;28;20082;-71
2022/10/22 06:01:35;;;;;;;19.60;7.82;;;;;;;11.62;100.00;100731.41;5087382;28;20063;-74
2022/10/22 06:04:04;;;;;;;16.67;7.10;;;;;;;11.63;100.00;100735.75;5078827;28;20048;-73
2022/10/22 06:06:46;;;;;;;16.45;8.15;;;;;;;11.63;100.00;100744.06;5079821;28;20047;-71
2022/10/22 06:09:34;;;;;;;21.77;10.27;;;;;;;11.63;100.00;100739.31;5087057;28;20051;-73
2022/10/22 06:12:01;;;;;;;22.95;11.48;;;;;;;11.62;100.00;100739.72;5077838;28;20152;-72
2022/10/22 06:14:34;;;;;;;28.15;12.77;;;;;;;11.58;100.00;100738.94;5080007;28;20044;-72
2022/10/22 06:17:00;;;;;;;27.80;12.65;;;;;;;11.50;100.00;100738.16;5084471;28;20060;-72
2022/10/22 06:19:28;;;;;;;26.05;11.43;;;;;;;11.54;100.00;100749.25;5079009;28;20491;-71
2022/10/22 06:21:55;;;;;;;26.48;11.88;;;;;;;11.51;100.00;100741.75;5091140;28;20527;-72
2022/10/22 06:24:21;;;;;;;27.05;12.30;;;;;;;11.52;100.00;100754.38;5088489;28;20566;-72
2022/10/22 06:26:51;;;;;;;31.00;12.98;;;;;;;11.50;100.00;100751.22;5088042;28;20420;-72
2022/10/22 06:29:20;;;;;;;25.48;12.13;;;;;;;11.48;100.00;100757.16;5088896;28;20139;-73
2022/10/22 06:31:47;;;;;;;29.13;12.90;;;;;;;11.48;100.00;100757.16;5083602;28;20061;-72
2022/10/22 06:34:14;;;;;;;32.33;13.70;;;;;;;11.52;100.00;100765.47;5085392;28;20102;-72
2022/10/22 06:36:43;;;;;;;29.33;13.13;;;;;;;11.54;100.00;100774.97;5092532;28;20055;-73
2022/10/22 06:39:11;;;;;;;27.52;11.93;;;;;;;11.54;100.00;100776.97;5080316;28;20127;-72
2022/10/22 06:41:38;;;;;;;28.65;13.30;;;;;;;11.55;100.00;100782.09;5095639;28;20126;-72
2022/10/22 06:44:05;;;;;;;29.98;12.93;;;;;;;11.58;100.00;100774.97;5087187;28;20052;-72
2022/10/22 06:46:31;;;;;;;25.08;12.20;;;;;;;11.61;100.00;100780.50;5086583;28;20044;-72
2022/10/22 06:49:01;;;;;;;26.33;13.57;;;;;;;11.68;100.00;100788.00;5080972;28;20052;-72
2022/10/22 06:51:28;;;;;;;25.92;11.82;;;;;;;11.74;100.00;100789.94;5069956;28;20135;-70
2022/10/22 06:53:56;;;;;;;27.15;11.80;;;;;;;11.78;100.00;100799.03;5081936;28;20056;-72
2022/10/22 06:56:25;;;;;;;22.60;10.90;;;;;;;11.85;100.00;100803.78;5083886;28;20444;-72
2022/10/22 06:58:54;;;;;;;23.08;11.45;;;;;;;11.92;100.00;100810.03;5087425;28;20048;-71
2022/10/22 07:01:25;;;;;;;25.30;11.73;;;;;;;12.00;100.00;100803.28;5115321;27;20056;-72
2022/10/22 07:03:52;;;;;;;28.55;11.40;;;;;;;12.13;100.00;100818.28;5086524;28;20687;-72
2022/10/22 07:06:20;;;;;;;24.25;11.98;;;;;;;12.27;100.00;100820.97;5114165;27;20067;-73
2022/10/22 07:08:47;;;;;;;24.23;10.90;;;;;;;12.29;100.00;100821.31;5083381;28;20711;-73
2022/10/22 07:11:19;;;;;;;28.33;11.77;;;;;;;12.41;100.00;100833.94;5096389;28;20546;-72
2022/10/22 07:13:47;;;;;;;24.88;11.52;;;;;;;12.62;100.00;100828.22;5089523;28;20048;-73
2022/10/22 07:16:14;;;;;;;22.33;11.40;;;;;;;12.84;100.00;100835.19;5080645;28;20522;-72
2022/10/22 07:18:42;;;;;;;27.25;12.77;;;;;;;12.93;100.00;100833.53;5093326;28;20052;-72
2022/10/22 07:21:11;;;;;;;22.23;10.10;;;;;;;13.17;100.00;100834.53;5090142;28;20059;-72
2022/10/22 07:23:37;;;;;;;27.25;12.43;;;;;;;13.37;100.00;100837.50;5091073;28;20053;-71
2022/10/22 07:26:08;;;;;;;25.13;11.35;;;;;;;13.55;100.00;100836.09;5078472;28;20049;-72
2022/10/22 07:28:36;;;;;;;23.15;8.93;;;;;;;13.99;100.00;100849.88;5081350;28;20055;-70
2022/10/22 07:31:03;;;;;;;25.67;11.70;;;;;;;14.23;100.00;100859.13;5089302;28;20422;-71
2022/10/22 07:33:30;;;;;;;21.80;8.32;;;;;;;14.31;100.00;100860.63;5077889;28;20117;-71
2022/10/22 07:35:59;;;;;;;20.25;8.23;;;;;;;14.55;100.00;100854.66;5094656;28;20054;-71
2022/10/22 07:38:26;;;;;;;22.17;8.18;;;;;;;14.76;100.00;100873.84;5082063;28;20601;-73
2022/10/22 07:40:53;;;;;;;21.33;7.03;;;;;;;14.95;100.00;100855.66;5084212;28;20040;-73
2022/10/22 07:43:19;;;;;;;18.95;6.88;;;;;;;15.20;100.00;100861.56;5089453;28;20044;-73
2022/10/22 07:45:46;;;;;;;19.15;6.60;;;;;;;15.36;100.00;100870.06;5095984;28;20048;-71
2022/10/22 07:48:12;;;;;;;13.18;4.13;;;;;;;15.53;100.00;100869.72;5086024;28;20051;-71
2022/10/22 07:50:39;;;;;;;15.38;6.93;;;;;;;15.78;100.00;100868.47;5082543;28;20048;-71
2022/10/22 07:53:08;;;;;;;20.55;6.30;;;;;;;15.93;100.00;100872.56;5082869;28;20051;-71
2022/10/22 07:55:35;;;;;;;19.85;2.00;;;;;;;16.07;100.00;100869.47;5089916;28;20047;-71
2022/10/22 07:58:02;;;;;;;6.35;2.50;;;;;;;16.28;100.00;100869.81;5081380;28;20430;-71
2022/10/22 08:00:28;;;;;;;10.55;3.95;;;;;;;16.46;100.00;100880.59;5080897;28;20052;-71
2022/10/22 08:02:54;;;;;;;19.92;4.70;;;;;;;16.57;100.00;100870.75;5088493;28;20396;-71
2022/10/22 08:05:21;;;;;;;14.15;4.70;;;;;;;16.65;100.00;100872.19;5087725;28;20045;-71
2022/10/22 08:07:47;;;;;;;18.45;4.50;;;;;;;16.72;100.00;100888.78;5074761;28;20052;-71
2022/10/22 08:10:14;;;;;;;17.42;4.53;;;;;;;16.84;100.00;100890.09;5081138;28;20427;-71
2022/10/22 08:12:40;;;;;;;14.52;4.50;;;;;;;17.00;100.00;100893.69;5080596;28;20058;-71
2022/10/22 08:15:08;;;;;;;9.88;3.50;;;;;;;17.07;100.00;100892.69;5087555;28;20059;-73
2022/10/22 08:17:35;;;;;;;12.85;4.10;;;;;;;17.23;100.00;100896.28;5073955;28;20079;-73
2022/10/22 08:20:02;;;;;;;11.65;3.30;;;;;;;17.27;100.00;100897.00;5085375;28;20145;-73
2022/10/22 08:22:28;;;;;;;10.52;2.65;;;;;;;17.31;100.00;100911.66;5080596;28;20052;-73
2022/10/22 08:24:55;;;;;;;14.85;3.40;;;;;;;17.41;100.00;100909.81;5089885;28;20051;-72
2022/10/22 08:27:21;;;;;;;14.13;3.45;;;;;;;17.48;100.00;100912.44;5089537;28;20044;-71
2022/10/22 08:29:48;;;;;;;15.10;3.83;;;;;;;17.49;100.00;100919.63;5084511;28;20048;-72
2022/10/22 08:32:14;;;;;;;11.60;4.05;;;;;;;17.54;100.00;100916.28;5092045;28;20046;-72
2022/10/22 08:34:41;;;;;;;11.23;2.80;;;;;;;17.47;100.00;100917.28;5091714;28;20140;-72
2022/10/22 08:37:09;;;;;;;11.20;3.08;;;;;;;17.49;100.00;100925.22;5091199;28;20048;-72
2022/10/22 08:39:35;;;;;;;18.80;3.63;;;;;;;17.41;100.00;100934.97;5089708;28;20446;-73
2022/10/22 08:42:29;;;;;;;11.18;2.88;;;;;;;17.45;100.00;100938.53;5094073;28;20048;-73
2022/10/22 08:45:14;;;;;;;15.95;3.33;;;;;;;17.42;100.00;100937.38;5090050;28;20055;-73
2022/10/22 08:47:43;;;;;;;10.80;2.65;;;;;;;17.41;100.00;100943.38;5097186;28;20052;-73
2022/10/22 08:50:14;;;;;;;8.90;3.15;;;;;;;17.52;100.00;100946.72;5093025;28;20039;-73
2022/10/22 08:52:46;;;;;;;12.43;2.05;;;;;;;17.34;100.00;100949.16;5085456;28;20044;-73
2022/10/22 08:55:14;;;;;;;3.25;0.70;;;;;;;17.34;100.00;100955.53;5091141;28;20648;-73
2022/10/22 08:57:55;;;;;;;5.63;1.67;;;;;;;17.42;100.00;100951.34;5088563;28;20062;-73
2022/10/22 09:00:40;;;;;;;4.20;1.83;;;;;;;17.42;100.00;100956.19;5081367;28;20624;-73
2022/10/22 09:03:22;;;;;;;5.88;1.98;;;;;;;17.49;100.00;100953.22;5084999;28;20056;-73
2022/10/22 09:05:55;;;;;;;8.82;2.80;;;;;;;17.54;100.00;100950.66;5080874;28;20040;-73
2022/10/22 09:08:22;;;;;;;4.78;1.58;;;;;;;17.42;100.00;100959.75;5100498;28;20043;-73
2022/10/22 09:11:06;;;;;;;9.48;2.00;;;;;;;17.41;100.00;100974.13;5100791;28;20040;-72
2022/10/22 09:13:32;;;;;;;8.18;2.08;;;;;;;17.38;100.00;100983.44;5103359;28;20395;-72
2022/10/22 09:16:12;;;;;;;4.05;1.38;;;;;;;17.49;100.00;100970.00;5086988;28;20051;-72
2022/10/22 09:18:45;;;;;;;9.48;2.55;;;;;;;17.51;100.00;100964.72;5114020;27;20039;-72
2022/10/22 09:21:33;;;;;;;10.48;2.67;;;;;;;17.61;100.00;100970.06;5097612;28;20052;-73
2022/10/22 09:24:19;;;;;;;6.88;1.88;;;;;;;17.50;100.00;100963.97;5101236;28;20507;-73
2022/10/22 09:26:45;;;;;;;9.07;1.85;;;;;;;17.65;100.00;100967.94;5099582;28;20058;-72
2022/10/22 09:29:21;;;;;;;3.30;1.60;;;;;;;17.66;100.00;100974.34;5063319;28;20911;-73
2022/10/22 09:31:47;;;;;;;2.72;0.70;;;;;;;17.71;100.00;100976.59;5061973;28;20128;-73
2022/10/22 09:34:18;;;;;;;7.18;1.75;;;;;;;17.80;100.00;100977.56;5062070;28;20051;-74
2022/10/22 09:36:46;;;;;;;11.90;2.97;;;;;;;17.94;100.00;100987.59;5071129;28;20116;-73
2022/10/22 09:39:28;;;;;;;11.63;2.78;;;;;;;17.83;100.00;100987.09;5072334;28;20080;-71
2022/10/22 09:41:54;;;;;;;3.17;1.25;;;;;;;17.81;100.00;100986.72;5073866;28;20098;-73
2022/10/22 09:44:24;;;;;;;4.63;1.90;;;;;;;17.90;100.00;100992.50;5072949;28;20812;-73
2022/10/22 09:46:51;;;;;;;5.70;1.55;;;;;;;17.81;100.00;100998.72;5072575;28;20044;-73
2022/10/22 09:49:21;;;;;;;7.78;1.40;;;;;;;17.93;100.00;100991.63;5068928;28;20060;-73
2022/10/22 09:51:55;;;;;;;5.72;1.42;;;;;;;17.95;100.00;101001.13;5071035;28;20846;-73
2022/10/22 09:54:33;;;;;;;6.93;2.22;;;;;;;17.99;100.00;100992.66;5064920;28;20860;-74
2022/10/22 09:57:16;;;;;;;5.75;1.27;;;;;;;17.84;100.00;101005.44;5076755;28;20056;-74
2022/10/22 09:59:46;;;;;;;9.75;2.20;;;;;;;18.00;100.00;100994.22;5075821;28;20061;-73
2022/10/22 10:02:21;;;;;;;9.95;2.60;;;;;;;17.95;100.00;101014.34;5068729;28;20065;-73
2022/10/22 10:05:06;;;;;;;8.80;2.80;;;;;;;18.10;100.00;101001.56;5062760;28;20055;-73
2022/10/22 10:07:34;;;;;;;9.23;2.40;;;;;;;18.05;100.00;101007.69;5071615;28;20055;-73
2022/10/22 10:10:11;;;;;;;10.38;2.90;;;;;;;18.19;100.00;101012.88;5073287;28;20732;-73
2022/10/22 10:12:48;;;;;;;3.15;0.85;;;;;;;18.05;100.00;101026.50;5076050;28;20048;-73
2022/10/22 10:15:53;;;;;;;8.48;2.10;;;;;;;18.20;100.00;101017.28;5078463;28;20058;-73
2022/10/22 10:18:57;;;;;;;8.80;2.00;;;;;;;17.96;100.00;101032.72;5047964;28;20044;-73
2022/10/22 10:21:48;;;;;;;14.68;2.22;;;;;;;17.99;100.00;101029.81;5068648;28;20052;-74
2022/10/22 10:24:27;;;;;;;7.15;1.60;;;;;;;18.03;100.00;101027.72;5070947;28;20106;-74
2022/10/22 10:27:18;;;;;;;3.20;1.23;;;;;;;18.15;100.00;101031.81;5072382;28;20044;-73
2022/10/22 10:29:48;;;;;;;2.83;1.35;;;;;;;18.13;100.00;101036.28;5072224;28;20071;-75
2022/10/22 10:32:20;;;;;;;5.07;1.73;;;;;;;18.15;100.00;101040.19;5071845;28;20061;-74
2022/10/22 10:35:01;;;;;;;;;;;;;;;18.25;100.00;101029.97;5070306;28;20063;-74
2022/10/22 10:37:29;;;;;;;;;;;;;;;18.28;100.00;101043.06;5074793;28;19935;-73
2022/10/22 10:39:56;;;;;;;;;;;;;;;18.29;100.00;101044.66;5068473;28;19923;-74
2022/10/22 10:42:33;;;;;;;;;;;;;;;18.13;100.00;101045.47;5071898;28;20001;-74
2022/10/22 10:45:11;;;;;;;;;;;;;;;18.21;100.00;101046.06;5070029;28;19931;-73
2022/10/22 10:47:44;;;;;;;;;;;;;;;18.42;100.00;101037.13;5071795;28;20270;-73
2022/10/22 10:50:24;;;;;;;;;;;;;;;18.42;100.00;101031.50;5075405;28;19923;-73
2022/10/22 10:53:03;;;;;;;;;;;;;;;18.46;100.00;101052.56;5071468;28;19924;-73
2022/10/22 10:55:37;;;;;;;;;;;;;;;18.66;100.00;101044.03;5073829;28;19924;-72
2022/10/22 10:58:22;;;;;;;;;;;;;;;18.69;100.00;101043.91;5072926;28;19932;-73
2022/10/22 11:00:56;;;;;;;;;;;;;;;18.74;100.00;101042.56;5075346;28;19928;-70
2022/10/22 11:03:29;;;;;;;;;;;;;;;18.94;100.00;101038.38;5068333;28;19935;-73
2022/10/22 11:05:57;;;;;;;;;;;;;;;19.06;100.00;101039.59;5073329;28;19985;-73
2022/10/22 11:08:28;;;;;;;;;;;;;;;18.84;100.00;101044.28;5073827;28;19946;-73
2022/10/22 11:11:13;;;;;;;;;;;;;;;18.93;100.00;101044.41;5068102;28;19928;-71
2022/10/22 11:13:56;;;;;;;;;;;;;;;18.81;100.00;101048.78;5070539;28;19973;-75
2022/10/22 11:16:30;;;;;;;;;;;;;;;18.68;100.00;101058.38;5070529;28;19924;-73
2022/10/22 11:18:56;;;;;;;;;;;;;;;18.72;100.00;101053.44;5063688;28;19970;-73
2022/10/22 11:21:23;;;;;;;;;;;;;;;18.82;100.00;101043.94;5071273;28;19924;-72
2022/10/22 11:23:57;;;;;;;;;;;;;;;18.72;100.00;101051.44;5073470;28;19985;-73
2022/10/22 11:26:35;;;;;;;;;;;;;;;18.74;100.00;101053.78;5071675;28;19932;-73
2022/10/22 11:29:04;;;;;;;;;;;;;;;18.76;100.00;101062.56;5069193;28;20036;-72
2022/10/22 11:31:31;;;;;;;;;;;;;;;18.80;100.00;101063.22;5063197;28;20421;-72
2022/10/22 11:34:09;;;;;;;;;;;;;;;18.91;100.00;101060.91;5075320;28;19985;-73